DAL1258 KAUS-KATL
Flight info
| Callsign | DAL1258 |
|---|---|
| Flight time | N/A |
| Altitude | 35000 |
| Route | ILEXY4 ZENZI LFK AEX MERDN ORRKK HOBTT3 |
| Aircraft | A321/M-SDE3FGHIRWY/LB1 |
Departure
| Time | 2026-05-05 16:04 |
|---|---|
| Airport | Austin Bergstrom International Airport (KAUS) |
Arrival
| Time | N/A |
|---|---|
| Airport | Hartsfield Jackson Atlanta International Airport (KATL) |
| Time | Latitude | Longitude | Altitude | Speed | Heading |
|---|---|---|---|---|---|
| 2026-05-05 15:49 | 30.20256 | -97.66205 | 501 ft | 0 kts | 276° |
| 2026-05-05 15:55 | 30.20255 | -97.66177 | 501 ft | 4 kts | 260° |
| 2026-05-05 15:56 | 30.20264 | -97.66150 | 501 ft | 4 kts | 220° |
| 2026-05-05 15:56 | 30.20282 | -97.66141 | 501 ft | 1 kts | 179° |
| 2026-05-05 15:56 | 30.20285 | -97.66141 | 501 ft | 0 kts | 179° |
| 2026-05-05 15:58 | 30.20277 | -97.66141 | 501 ft | 4 kts | 179° |
| 2026-05-05 15:59 | 30.20238 | -97.66140 | 501 ft | 5 kts | 178° |
| 2026-05-05 15:59 | 30.20181 | -97.66138 | 501 ft | 13 kts | 178° |
| 2026-05-05 15:59 | 30.20099 | -97.66174 | 501 ft | 14 kts | 251° |
| 2026-05-05 15:59 | 30.20096 | -97.66283 | 501 ft | 14 kts | 269° |
| 2026-05-05 16:00 | 30.20074 | -97.66384 | 501 ft | 13 kts | 217° |
| 2026-05-05 16:00 | 30.19983 | -97.66390 | 501 ft | 14 kts | 178° |
| 2026-05-05 16:00 | 30.19914 | -97.66340 | 501 ft | 13 kts | 100° |
| 2026-05-05 16:00 | 30.19915 | -97.66223 | 494 ft | 16 kts | 88° |
| 2026-05-05 16:01 | 30.19918 | -97.66088 | 487 ft | 18 kts | 88° |
| 2026-05-05 16:01 | 30.19974 | -97.65992 | 487 ft | 16 kts | 0° |
| 2026-05-05 16:01 | 30.20084 | -97.65994 | 488 ft | 15 kts | 359° |
| 2026-05-05 16:01 | 30.20188 | -97.65997 | 489 ft | 14 kts | 358° |
| 2026-05-05 16:02 | 30.20286 | -97.65999 | 486 ft | 14 kts | 359° |
| 2026-05-05 16:02 | 30.20368 | -97.65967 | 489 ft | 13 kts | 59° |
| 2026-05-05 16:02 | 30.20372 | -97.65863 | 488 ft | 14 kts | 90° |
| 2026-05-05 16:02 | 30.20337 | -97.65785 | 481 ft | 10 kts | 173° |
| 2026-05-05 16:03 | 30.20176 | -97.65783 | 478 ft | 54 kts | 179° |
| 2026-05-05 16:03 | 30.19574 | -97.65771 | 486 ft | 115 kts | 179° |
| 2026-05-05 16:03 | 30.18601 | -97.65747 | 492 ft | 160 kts | 179° |
| 2026-05-05 16:03 | 30.17479 | -97.65706 | 1124 ft | 158 kts | 178° |
| 2026-05-05 16:04 | 30.16399 | -97.65625 | 1808 ft | 154 kts | 179° |
| 2026-05-05 16:04 | 30.15323 | -97.65377 | 2325 ft | 167 kts | 158° |
| 2026-05-05 16:04 | 30.14528 | -97.64264 | 2539 ft | 203 kts | 112° |
| 2026-05-05 16:04 | 30.14609 | -97.62546 | 2682 ft | 234 kts | 75° |
| 2026-05-05 16:05 | 30.15348 | -97.60725 | 2796 ft | 262 kts | 62° |
| 2026-05-05 16:05 | 30.16344 | -97.58865 | 3094 ft | 280 kts | 59° |
| 2026-05-05 16:05 | 30.17428 | -97.56961 | 3733 ft | 285 kts | 58° |
| 2026-05-05 16:05 | 30.18515 | -97.55027 | 4331 ft | 292 kts | 59° |
| 2026-05-05 16:06 | 30.19612 | -97.53005 | 4808 ft | 301 kts | 59° |
| 2026-05-05 16:06 | 30.20703 | -97.50926 | 5390 ft | 303 kts | 60° |
| 2026-05-05 16:06 | 30.21419 | -97.49533 | 5747 ft | 305 kts | 60° |
| 2026-05-05 16:06 | 30.22836 | -97.46729 | 6561 ft | 307 kts | 59° |
| 2026-05-05 16:07 | 30.23561 | -97.45280 | 6937 ft | 308 kts | 59° |
| 2026-05-05 16:07 | 30.24635 | -97.43126 | 7532 ft | 310 kts | 59° |
| 2026-05-05 16:07 | 30.25712 | -97.40963 | 8098 ft | 312 kts | 59° |
| 2026-05-05 16:07 | 30.26797 | -97.38780 | 8737 ft | 313 kts | 58° |
| 2026-05-05 16:08 | 30.27887 | -97.36587 | 9307 ft | 316 kts | 58° |
| 2026-05-05 16:08 | 30.28979 | -97.34390 | 9931 ft | 316 kts | 58° |
| 2026-05-05 16:08 | 30.30102 | -97.32139 | 10170 ft | 332 kts | 58° |
| 2026-05-05 16:08 | 30.31293 | -97.29765 | 10297 ft | 350 kts | 58° |
| 2026-05-05 16:09 | 30.32546 | -97.27267 | 10416 ft | 366 kts | 58° |
| 2026-05-05 16:09 | 30.33831 | -97.24689 | 10829 ft | 373 kts | 58° |
| 2026-05-05 16:09 | 30.34977 | -97.21978 | 11286 ft | 379 kts | 69° |
| 2026-05-05 16:09 | 30.35634 | -97.19010 | 11785 ft | 383 kts | 82° |
| 2026-05-05 16:10 | 30.35749 | -97.15926 | 12270 ft | 387 kts | 94° |
| 2026-05-05 16:10 | 30.35558 | -97.12804 | 12745 ft | 390 kts | 95° |
| 2026-05-05 16:10 | 30.35368 | -97.09652 | 13227 ft | 394 kts | 95° |
| 2026-05-05 16:10 | 30.35182 | -97.06468 | 13683 ft | 399 kts | 95° |
| 2026-05-05 16:11 | 30.34996 | -97.03244 | 14132 ft | 403 kts | 95° |
| 2026-05-05 16:11 | 30.34423 | -96.93400 | 15451 ft | 414 kts | 95° |
| 2026-05-05 16:12 | 30.34224 | -96.90061 | 15906 ft | 418 kts | 95° |
| 2026-05-05 16:12 | 30.33817 | -96.83289 | 16801 ft | 426 kts | 95° |
| 2026-05-05 16:13 | 30.33181 | -96.72893 | 18107 ft | 438 kts | 95° |
| 2026-05-05 16:13 | 30.32961 | -96.69364 | 18470 ft | 441 kts | 95° |
| 2026-05-05 16:13 | 30.32739 | -96.65811 | 18818 ft | 445 kts | 95° |
| 2026-05-05 16:14 | 30.32291 | -96.58605 | 19521 ft | 452 kts | 95° |
| 2026-05-05 16:14 | 30.31834 | -96.51285 | 20152 ft | 459 kts | 95° |
| 2026-05-05 16:15 | 30.31721 | -96.49493 | 20319 ft | 461 kts | 95° |
| 2026-05-05 16:15 | 30.31333 | -96.43426 | 20842 ft | 468 kts | 95° |
| 2026-05-05 16:16 | 30.31055 | -96.39125 | 21231 ft | 472 kts | 95° |
| 2026-05-05 16:16 | 30.31030 | -96.38724 | 21240 ft | 473 kts | 95° |
| 2026-05-05 16:17 | 30.30949 | -96.37552 | 21323 ft | 474 kts | 95° |
| 2026-05-05 16:17 | 30.30683 | -96.33732 | 21666 ft | 477 kts | 95° |
| 2026-05-05 16:18 | 30.30177 | -96.26023 | 22312 ft | 484 kts | 95° |
| 2026-05-05 16:18 | 30.29928 | -96.22131 | 22592 ft | 487 kts | 95° |
| 2026-05-05 16:18 | 30.29434 | -96.14258 | 23186 ft | 494 kts | 91° |
| 2026-05-05 16:19 | 30.29593 | -96.10284 | 23441 ft | 496 kts | 81° |
| 2026-05-05 16:19 | 30.30299 | -96.06387 | 23729 ft | 495 kts | 70° |
| 2026-05-05 16:19 | 30.33233 | -95.99288 | 24297 ft | 486 kts | 49° |
| 2026-05-05 16:20 | 30.37340 | -95.93021 | 24937 ft | 487 kts | 46° |
| 2026-05-05 16:20 | 30.41470 | -95.86779 | 25534 ft | 490 kts | 46° |
| 2026-05-05 16:21 | 30.45646 | -95.80454 | 26120 ft | 494 kts | 46° |
| 2026-05-05 16:22 | 30.51924 | -95.70868 | 27018 ft | 499 kts | 46° |
| 2026-05-05 16:22 | 30.52043 | -95.70686 | 27040 ft | 499 kts | 46° |
| 2026-05-05 16:24 | 30.53392 | -95.68537 | 27547 ft | 491 kts | 47° |
| 2026-05-05 16:24 | 30.55416 | -95.65365 | 27721 ft | 495 kts | 46° |
| 2026-05-05 16:24 | 30.59666 | -95.58962 | 28107 ft | 503 kts | 45° |
| 2026-05-05 16:25 | 30.61821 | -95.55749 | 28340 ft | 505 kts | 45° |
| 2026-05-05 16:25 | 30.66114 | -95.49261 | 28802 ft | 509 kts | 46° |
| 2026-05-05 16:25 | 30.68258 | -95.45969 | 29044 ft | 511 kts | 46° |
| 2026-05-05 16:26 | 30.76323 | -95.33541 | 29879 ft | 517 kts | 46° |
| 2026-05-05 16:26 | 30.85016 | -95.20169 | 30909 ft | 517 kts | 45° |
| 2026-05-05 16:27 | 30.89407 | -95.13388 | 31496 ft | 517 kts | 45° |
| 2026-05-05 16:27 | 30.93730 | -95.06692 | 32066 ft | 516 kts | 45° |
| 2026-05-05 16:27 | 30.98028 | -95.00025 | 32655 ft | 515 kts | 45° |
| 2026-05-05 16:27 | 31.02334 | -94.93358 | 33242 ft | 513 kts | 45° |
| 2026-05-05 16:28 | 31.06615 | -94.86717 | 33854 ft | 511 kts | 45° |
| 2026-05-05 16:28 | 31.10876 | -94.80080 | 34320 ft | 511 kts | 45° |
| 2026-05-05 16:28 | 31.14671 | -94.73003 | 34730 ft | 525 kts | 61° |
| 2026-05-05 16:28 | 31.16585 | -94.64694 | 34882 ft | 538 kts | 81° |
| 2026-05-05 16:29 | 31.17458 | -94.47155 | 34926 ft | 538 kts | 84° |
| 2026-05-05 16:29 | 31.18340 | -94.29479 | 34906 ft | 537 kts | 84° |
| 2026-05-05 16:30 | 31.19146 | -94.12207 | 34891 ft | 539 kts | 84° |
| 2026-05-05 16:30 | 31.20557 | -93.81566 | 34866 ft | 542 kts | 84° |
| 2026-05-05 16:31 | 31.21307 | -93.63986 | 34751 ft | 544 kts | 84° |
| 2026-05-05 16:31 | 31.22051 | -93.46563 | 34759 ft | 541 kts | 84° |
| 2026-05-05 16:31 | 31.23226 | -93.17516 | 34781 ft | 542 kts | 85° |
| 2026-05-05 16:32 | 31.24525 | -92.82595 | 34904 ft | 535 kts | 84° |
| 2026-05-05 16:32 | 31.25148 | -92.65159 | 35011 ft | 532 kts | 84° |
| 2026-05-05 16:32 | 31.26420 | -92.47865 | 35068 ft | 524 kts | 68° |
| 2026-05-05 16:33 | 31.31739 | -92.31757 | 34668 ft | 529 kts | 67° |
| 2026-05-05 16:33 | 31.36547 | -92.15710 | 34777 ft | 527 kts | 61° |
| 2026-05-05 16:33 | 31.46813 | -91.83680 | 34909 ft | 519 kts | 62° |
| 2026-05-05 16:34 | 31.51873 | -91.67601 | 35067 ft | 516 kts | 62° |
| 2026-05-05 16:34 | 31.56880 | -91.51628 | 35081 ft | 520 kts | 62° |
| 2026-05-05 16:34 | 31.66870 | -91.19426 | 34972 ft | 524 kts | 62° |
| 2026-05-05 16:35 | 31.76683 | -90.87443 | 34888 ft | 524 kts | 62° |
| 2026-05-05 16:35 | 31.86198 | -90.56288 | 34961 ft | 513 kts | 63° |
| 2026-05-05 16:36 | 31.90779 | -90.39680 | 35050 ft | 544 kts | 80° |
| 2026-05-05 16:36 | 31.90981 | -90.35196 | 34961 ft | 538 kts | 75° |
| 2026-05-05 16:36 | 31.91899 | -90.31057 | 34976 ft | 517 kts | 58° |
| 2026-05-05 16:36 | 31.93442 | -90.27320 | 34983 ft | 506 kts | 50° |
| 2026-05-05 16:37 | 31.96943 | -90.20089 | 34975 ft | 509 kts | 54° |
| 2026-05-05 16:37 | 31.99661 | -90.12307 | 34983 ft | 520 kts | 62° |
| 2026-05-05 16:38 | 32.01938 | -90.04179 | 34981 ft | 524 kts | 64° |
| 2026-05-05 16:38 | 32.04167 | -89.96016 | 35007 ft | 523 kts | 63° |
| 2026-05-05 16:39 | 32.06529 | -89.87932 | 35010 ft | 520 kts | 62° |
| 2026-05-05 16:39 | 32.08962 | -89.79896 | 35021 ft | 520 kts | 62° |
| 2026-05-05 16:40 | 32.11369 | -89.71850 | 35018 ft | 520 kts | 62° |
| 2026-05-05 16:40 | 32.13737 | -89.63776 | 35015 ft | 521 kts | 62° |
| 2026-05-05 16:41 | 32.16872 | -89.52990 | 35015 ft | 521 kts | 62° |
| 2026-05-05 16:41 | 32.20614 | -89.41071 | 34729 ft | 513 kts | 56° |